createdAt,value
2018-05-27T00:01:33.922Z,8.73
2018-05-27T00:04:00.312Z,9.77
2018-05-27T00:06:27.284Z,9.80
2018-05-27T00:08:53.508Z,9.40
2018-05-27T00:11:20.511Z,9.37
2018-05-27T00:13:47.638Z,8.93
2018-05-27T00:16:14.628Z,9.10
2018-05-27T00:18:41.018Z,8.20
2018-05-27T00:21:07.244Z,8.20
2018-05-27T00:23:33.442Z,7.77
2018-05-27T00:26:00.878Z,9.00
2018-05-27T00:28:27.835Z,7.83
2018-05-27T00:30:54.168Z,7.53
2018-05-27T00:33:20.432Z,8.07
2018-05-27T00:35:47.386Z,7.03
2018-05-27T00:38:13.602Z,7.20
2018-05-27T00:40:39.844Z,8.17
2018-05-27T00:43:06.052Z,8.70
2018-05-27T00:45:32.282Z,8.70
2018-05-27T00:47:58.655Z,8.70
2018-05-27T00:50:24.879Z,8.70
2018-05-27T00:52:51.091Z,8.00
2018-05-27T00:55:17.513Z,8.30
2018-05-27T00:57:43.737Z,8.23
2018-05-27T01:00:09.955Z,8.10
2018-05-27T01:02:36.209Z,9.63
2018-05-27T01:05:02.478Z,9.43
2018-05-27T01:07:29.442Z,10.07
2018-05-27T01:09:55.706Z,10.97
2018-05-27T01:12:21.922Z,10.40
2018-05-27T01:14:48.155Z,11.50
2018-05-27T01:17:14.557Z,11.73
2018-05-27T01:19:40.785Z,10.07
2018-05-27T01:22:07.218Z,9.80
2018-05-27T01:24:33.482Z,10.30
2018-05-27T01:26:59.680Z,10.83
2018-05-27T01:29:25.967Z,12.47
2018-05-27T01:31:52.311Z,11.10
2018-05-27T01:34:18.527Z,11.10
2018-05-27T01:36:44.887Z,10.33
2018-05-27T01:39:11.117Z,11.40
2018-05-27T01:41:37.321Z,11.30
2018-05-27T01:44:03.540Z,10.77
2018-05-27T01:46:29.805Z,11.87
2018-05-27T01:48:56.027Z,11.23
2018-05-27T01:51:22.266Z,10.70
2018-05-27T01:53:48.524Z,10.57
2018-05-27T01:56:16.113Z,9.47
2018-05-27T01:58:42.333Z,10.50
2018-05-27T02:01:08.579Z,11.40
2018-05-27T02:03:34.775Z,11.03
2018-05-27T02:06:00.975Z,10.50
2018-05-27T02:08:27.197Z,10.37
2018-05-27T02:10:53.408Z,10.07
2018-05-27T02:13:19.641Z,10.70
2018-05-27T02:15:45.892Z,10.67
2018-05-27T02:18:12.096Z,10.50
2018-05-27T02:20:38.347Z,10.07
2018-05-27T02:23:04.623Z,10.80
2018-05-27T02:25:31.587Z,10.60
2018-05-27T02:27:58.542Z,11.73
2018-05-27T02:30:24.907Z,11.50
2018-05-27T02:32:51.153Z,11.40
2018-05-27T02:35:17.379Z,9.90
2018-05-27T02:37:44.214Z,10.47
2018-05-27T02:40:10.431Z,10.93
2018-05-27T02:42:36.662Z,10.93
2018-05-27T02:45:02.966Z,13.30
2018-05-27T02:47:29.183Z,11.70
2018-05-27T02:49:56.168Z,11.03
2018-05-27T02:52:22.408Z,11.07
2018-05-27T02:54:48.631Z,11.90
2018-05-27T02:57:15.024Z,12.10
2018-05-27T02:59:41.279Z,12.27
2018-05-27T03:02:07.494Z,11.20
2018-05-27T03:04:33.696Z,11.90
2018-05-27T03:07:00.686Z,9.20
2018-05-27T03:09:26.912Z,10.10
2018-05-27T03:11:53.146Z,11.07
2018-05-27T03:14:19.405Z,10.37
2018-05-27T03:16:45.642Z,10.33
2018-05-27T03:19:11.860Z,9.93
2018-05-27T03:21:38.854Z,10.20
2018-05-27T03:24:05.092Z,10.00
2018-05-27T03:26:31.323Z,10.10
2018-05-27T03:28:57.580Z,10.43
2018-05-27T03:31:23.830Z,9.37
2018-05-27T03:33:50.052Z,9.93
2018-05-27T03:36:16.303Z,9.87
2018-05-27T03:38:42.502Z,9.53
2018-05-27T03:41:08.705Z,10.00
2018-05-27T03:43:34.953Z,10.97
2018-05-27T03:46:01.193Z,10.20
2018-05-27T03:48:27.424Z,9.30
2018-05-27T03:50:53.655Z,10.60
2018-05-27T03:53:19.866Z,10.70
2018-05-27T03:55:46.101Z,9.93
2018-05-27T03:58:12.497Z,10.00
2018-05-27T04:00:38.706Z,9.80
2018-05-27T04:03:04.957Z,9.57
2018-05-27T04:05:43.373Z,10.50
2018-05-27T04:08:21.667Z,10.83
2018-05-27T04:10:47.899Z,11.20
2018-05-27T04:13:14.860Z,11.33
2018-05-27T04:15:41.074Z,10.67
2018-05-27T04:18:07.469Z,10.20
2018-05-27T04:20:33.691Z,11.00
2018-05-27T04:22:59.919Z,11.17
2018-05-27T04:25:26.164Z,9.23
2018-05-27T04:27:53.118Z,10.27
2018-05-27T04:30:20.129Z,10.10
2018-05-27T04:32:46.386Z,10.47
2018-05-27T04:35:12.613Z,10.50
2018-05-27T04:37:38.820Z,9.37
2018-05-27T04:40:05.082Z,10.70
2018-05-27T04:42:31.297Z,9.80
2018-05-27T04:44:57.512Z,10.13
2018-05-27T04:47:24.047Z,10.23
2018-05-27T04:49:50.283Z,10.30
2018-05-27T04:52:16.486Z,9.57
2018-05-27T04:54:42.754Z,10.20
2018-05-27T04:57:08.992Z,11.27
2018-05-27T04:59:35.226Z,12.40
2018-05-27T05:02:01.482Z,14.03
2018-05-27T05:04:27.694Z,13.90
2018-05-27T05:06:53.923Z,13.80
2018-05-27T05:09:20.174Z,13.13
2018-05-27T05:11:46.384Z,14.60
2018-05-27T05:14:12.597Z,15.10
2018-05-27T05:16:38.835Z,15.80
2018-05-27T05:19:05.794Z,14.80
2018-05-27T05:21:32.754Z,12.33
2018-05-27T05:23:59.011Z,14.30
2018-05-27T05:26:25.246Z,12.80
2018-05-27T05:28:52.205Z,12.73
2018-05-27T05:31:18.533Z,12.10
2018-05-27T05:33:44.739Z,11.60
2018-05-27T05:36:10.950Z,13.93
2018-05-27T05:38:37.193Z,14.27
2018-05-27T05:41:03.424Z,15.20
2018-05-27T05:43:30.816Z,13.80
2018-05-27T05:45:57.209Z,12.87
2018-05-27T05:48:24.183Z,15.17
2018-05-27T05:50:51.432Z,15.80
2018-05-27T05:53:17.659Z,14.37
2018-05-27T05:55:43.885Z,15.70
2018-05-27T05:58:10.094Z,15.67
2018-05-27T06:00:36.366Z,15.07
2018-05-27T06:03:02.576Z,15.53
2018-05-27T06:05:30.439Z,14.60
2018-05-27T06:07:56.853Z,13.30
2018-05-27T06:10:23.513Z,13.20
2018-05-27T06:12:51.315Z,10.67
2018-05-27T06:15:17.564Z,10.43
2018-05-27T06:17:43.773Z,10.37
2018-05-27T06:20:10.359Z,9.90
2018-05-27T06:22:36.772Z,10.30
2018-05-27T06:25:03.756Z,9.30
2018-05-27T06:27:29.982Z,10.37
2018-05-27T06:29:57.423Z,10.00
2018-05-27T06:32:23.694Z,9.27
2018-05-27T06:34:49.940Z,8.00
2018-05-27T06:37:17.335Z,7.73
2018-05-27T06:39:43.565Z,7.77
2018-05-27T06:42:09.785Z,6.60
2018-05-27T06:44:37.347Z,8.17
2018-05-27T06:47:03.623Z,8.00
2018-05-27T06:49:29.864Z,6.20
2018-05-27T06:51:57.471Z,6.63
2018-05-27T06:54:23.869Z,6.30
2018-05-27T06:56:50.103Z,6.40
2018-05-27T06:59:16.363Z,6.03
2018-05-27T07:01:42.953Z,6.70
2018-05-27T07:04:09.177Z,6.27
2018-05-27T07:06:35.430Z,5.57
2018-05-27T07:09:01.652Z,6.13
2018-05-27T07:11:27.867Z,6.30
2018-05-27T07:13:54.113Z,5.90
2018-05-27T07:16:20.331Z,6.20
2018-05-27T07:18:46.586Z,5.97
2018-05-27T07:21:13.216Z,5.80
2018-05-27T07:23:39.487Z,5.50
2018-05-27T07:26:05.730Z,5.67
2018-05-27T07:28:31.976Z,5.80
2018-05-27T07:30:58.219Z,5.63
2018-05-27T07:33:24.440Z,5.30
2018-05-27T07:35:50.690Z,6.00
2018-05-27T07:38:16.903Z,5.33
2018-05-27T07:40:43.160Z,5.97
2018-05-27T07:43:09.382Z,5.80
2018-05-27T07:45:35.629Z,5.80
2018-05-27T07:48:01.877Z,5.20
2018-05-27T07:50:28.289Z,5.73
2018-05-27T07:52:54.525Z,4.90
2018-05-27T07:55:21.477Z,5.60
2018-05-27T07:57:48.438Z,5.63
2018-05-27T08:00:14.659Z,5.30
2018-05-27T08:02:40.879Z,5.37
2018-05-27T08:05:07.139Z,5.30
2018-05-27T08:07:33.369Z,5.30
2018-05-27T08:09:59.582Z,5.70
2018-05-27T08:12:25.839Z,5.90
2018-05-27T08:14:52.054Z,5.73
2018-05-27T08:17:18.274Z,5.50
2018-05-27T08:19:44.656Z,6.60
2018-05-27T08:22:10.839Z,6.20
2018-05-27T08:24:37.071Z,5.60
2018-05-27T08:27:03.342Z,5.80
2018-05-27T08:29:30.365Z,5.03
2018-05-27T08:31:56.583Z,5.30
2018-05-27T08:34:22.891Z,5.30
2018-05-27T08:36:49.122Z,5.90
2018-05-27T08:39:15.333Z,6.27
2018-05-27T08:41:41.586Z,5.87
2018-05-27T08:44:08.547Z,5.60
2018-05-27T08:46:35.501Z,4.80
2018-05-27T08:49:02.498Z,5.03
2018-05-27T08:51:28.714Z,5.50
2018-05-27T08:53:55.682Z,5.47
2018-05-27T08:56:21.931Z,6.10
2018-05-27T08:58:48.154Z,6.27
2018-05-27T09:01:14.436Z,4.63
2018-05-27T09:03:41.433Z,6.00
2018-05-27T09:06:07.617Z,5.10
2018-05-27T09:08:33.854Z,5.50
2018-05-27T09:11:00.130Z,5.70
2018-05-27T09:13:26.365Z,5.53
2018-05-27T09:15:52.575Z,5.00
2018-05-27T09:18:18.834Z,4.93
2018-05-27T09:20:45.055Z,4.93
2018-05-27T09:23:11.264Z,4.83
2018-05-27T09:25:38.250Z,4.50
2018-05-27T09:28:04.477Z,4.83
2018-05-27T09:30:30.728Z,4.50
2018-05-27T09:32:56.989Z,4.80
2018-05-27T09:35:23.229Z,4.80
2018-05-27T09:37:49.458Z,4.60
2018-05-27T09:40:15.710Z,4.60
2018-05-27T09:42:41.936Z,4.53
2018-05-27T09:45:08.179Z,4.27
2018-05-27T09:47:34.449Z,4.47
2018-05-27T09:50:00.696Z,4.50
2018-05-27T09:52:26.941Z,4.50
2018-05-27T09:54:53.329Z,5.00
2018-05-27T09:57:19.579Z,5.57
2018-05-27T09:59:45.811Z,4.43
2018-05-27T10:02:12.066Z,4.17
2018-05-27T10:04:39.053Z,4.70
2018-05-27T10:07:05.284Z,4.80
2018-05-27T10:09:31.543Z,5.13
2018-05-27T10:11:57.769Z,6.07
2018-05-27T10:14:23.973Z,5.77
2018-05-27T10:16:50.431Z,6.13
2018-05-27T10:19:16.641Z,5.40
2018-05-27T10:21:42.867Z,6.20
2018-05-27T10:24:09.127Z,5.67
2018-05-27T10:26:36.127Z,5.20
2018-05-27T10:29:02.379Z,6.10
2018-05-27T10:31:28.641Z,6.03
2018-05-27T10:33:54.882Z,5.90
2018-05-27T10:36:21.104Z,5.60
2018-05-27T10:38:47.357Z,5.57
2018-05-27T10:41:13.567Z,5.50
2018-05-27T10:43:39.807Z,5.80
2018-05-27T10:46:06.055Z,5.70
2018-05-27T10:48:32.277Z,5.20
2018-05-27T10:50:58.575Z,5.30
2018-05-27T10:53:24.805Z,4.70
2018-05-27T10:55:51.019Z,4.73
2018-05-27T10:58:17.246Z,4.50
2018-05-27T11:00:43.569Z,4.90
2018-05-27T11:03:09.799Z,4.93
2018-05-27T11:05:36.817Z,4.70
2018-05-27T11:08:03.097Z,6.10
2018-05-27T11:10:29.489Z,6.03
2018-05-27T11:12:55.745Z,5.30
2018-05-27T11:15:22.179Z,6.40
2018-05-27T11:17:48.397Z,6.27
2018-05-27T11:20:14.619Z,6.00
2018-05-27T11:22:40.855Z,6.20
2018-05-27T11:25:07.149Z,6.10
2018-05-27T11:27:33.421Z,5.50
2018-05-27T11:30:00.482Z,5.60
2018-05-27T11:32:26.771Z,6.37
2018-05-27T11:34:54.103Z,4.70
2018-05-27T11:37:20.386Z,5.50
2018-05-27T11:39:46.663Z,4.90
2018-05-27T11:42:12.902Z,5.10
2018-05-27T11:44:39.147Z,4.37
2018-05-27T11:47:06.120Z,5.20
2018-05-27T11:49:32.392Z,4.20
2018-05-27T11:51:58.654Z,4.70
2018-05-27T11:54:24.892Z,5.20
2018-05-27T11:56:51.127Z,4.67
2018-05-27T11:59:17.379Z,5.37
2018-05-27T12:01:43.601Z,4.80
2018-05-27T12:04:09.810Z,4.40
2018-05-27T12:06:36.997Z,4.13
2018-05-27T12:09:03.330Z,4.70
2018-05-27T12:11:30.248Z,4.40
2018-05-27T12:13:56.905Z,3.77
2018-05-27T12:16:23.885Z,4.63
2018-05-27T12:18:50.277Z,4.60
2018-05-27T12:21:16.532Z,4.63
2018-05-27T12:23:42.731Z,4.37
2018-05-27T12:26:08.949Z,4.13
2018-05-27T12:28:35.283Z,4.40
2018-05-27T12:31:02.293Z,4.57
2018-05-27T12:33:28.525Z,4.40
2018-05-27T12:35:54.775Z,4.10
2018-05-27T12:38:20.985Z,4.73
2018-05-27T12:40:47.207Z,4.07
2018-05-27T12:43:13.443Z,3.70
2018-05-27T12:45:40.397Z,3.40
2018-05-27T12:48:06.625Z,3.90
2018-05-27T12:50:32.871Z,3.37
2018-05-27T12:52:59.088Z,4.20
2018-05-27T12:55:25.313Z,4.40
2018-05-27T12:57:51.583Z,3.93
2018-05-27T13:00:17.817Z,4.30
2018-05-27T13:02:44.024Z,3.87
2018-05-27T13:05:10.265Z,4.10
2018-05-27T13:07:36.710Z,3.73
2018-05-27T13:10:02.975Z,4.57
2018-05-27T13:12:29.225Z,4.10
2018-05-27T13:14:55.451Z,3.80
2018-05-27T13:17:21.653Z,3.77
2018-05-27T13:19:48.977Z,3.60
2018-05-27T13:22:15.205Z,3.40
2018-05-27T13:24:41.426Z,3.17
2018-05-27T13:27:07.669Z,3.93
2018-05-27T13:29:33.919Z,3.80
2018-05-27T13:32:00.125Z,3.70
2018-05-27T13:34:26.392Z,3.23
2018-05-27T13:36:52.608Z,3.40
2018-05-27T13:39:18.829Z,3.57
2018-05-27T13:41:45.077Z,3.50
2018-05-27T13:44:11.316Z,4.10
2018-05-27T13:46:37.545Z,3.90
2018-05-27T13:49:04.543Z,3.97
2018-05-27T13:51:30.769Z,3.83
2018-05-27T13:53:57.003Z,3.20
2018-05-27T13:56:23.257Z,3.90
2018-05-27T13:58:49.475Z,3.33
2018-05-27T14:01:15.692Z,3.40
2018-05-27T14:03:41.963Z,3.50
2018-05-27T14:06:08.198Z,3.60
2018-05-27T14:08:41.601Z,3.03
2018-05-27T14:11:07.863Z,3.60
2018-05-27T14:13:34.860Z,3.37
2018-05-27T14:16:01.076Z,3.10
2018-05-27T14:18:27.352Z,3.53
2018-05-27T14:20:53.567Z,3.70
2018-05-27T14:23:19.792Z,3.03
2018-05-27T14:25:46.039Z,3.50
2018-05-27T14:28:12.266Z,3.60
2018-05-27T14:30:38.688Z,3.07
2018-05-27T14:33:04.922Z,3.60
2018-05-27T14:35:31.150Z,3.67
2018-05-27T14:37:58.122Z,3.67
2018-05-27T14:40:25.112Z,3.80
2018-05-27T14:42:51.381Z,3.37
2018-05-27T14:45:17.596Z,3.67
2018-05-27T14:47:43.838Z,3.80
2018-05-27T14:50:10.074Z,3.47
2018-05-27T14:52:36.277Z,3.53
2018-05-27T14:55:03.286Z,3.73
2018-05-27T14:57:29.486Z,3.50
2018-05-27T14:59:55.716Z,3.30
2018-05-27T15:02:22.720Z,3.40
2018-05-27T15:04:48.955Z,3.20
2018-05-27T15:07:15.201Z,4.20
2018-05-27T15:09:41.780Z,3.33
2018-05-27T15:12:08.009Z,4.07
2018-05-27T15:14:34.272Z,3.50
2018-05-27T15:17:00.514Z,3.40
2018-05-27T15:19:26.756Z,3.10
2018-05-27T15:21:53.006Z,3.40
2018-05-27T15:24:19.951Z,3.33
2018-05-27T15:26:46.240Z,4.00
2018-05-27T15:29:12.485Z,3.63
2018-05-27T15:31:38.753Z,3.80
2018-05-27T15:34:05.002Z,4.10
2018-05-27T15:36:31.227Z,10.00
2018-05-27T15:38:57.441Z,5.77
2018-05-27T15:41:23.669Z,4.30
2018-05-27T15:43:49.881Z,4.40
2018-05-27T15:46:17.039Z,4.33
2018-05-27T15:48:43.285Z,3.00
2018-05-27T15:51:10.260Z,3.07
2018-05-27T15:53:36.513Z,3.37
2018-05-27T15:56:02.763Z,3.90
2018-05-27T15:58:28.990Z,3.23
2018-05-27T16:00:55.211Z,3.87
2018-05-27T16:03:22.180Z,3.97
2018-05-27T16:05:49.148Z,4.13
2018-05-27T16:08:15.360Z,4.00
2018-05-27T16:10:41.825Z,4.23
2018-05-27T16:13:08.044Z,3.90
2018-05-27T16:15:34.257Z,4.33
2018-05-27T16:18:01.263Z,3.37
2018-05-27T16:20:28.234Z,4.10
2018-05-27T16:22:54.533Z,4.53
2018-05-27T16:25:20.771Z,4.10
2018-05-27T16:27:46.972Z,4.03
2018-05-27T16:30:13.244Z,3.93
2018-05-27T16:32:39.454Z,4.43
2018-05-27T16:35:05.697Z,4.77
2018-05-27T16:37:31.920Z,4.07
2018-05-27T16:39:58.142Z,4.57
2018-05-27T16:42:24.388Z,5.20
2018-05-27T16:44:50.623Z,4.03
2018-05-27T16:47:16.876Z,4.60
2018-05-27T16:49:43.107Z,4.80
2018-05-27T16:52:09.310Z,4.13
2018-05-27T16:54:35.556Z,4.30
2018-05-27T16:57:01.888Z,4.37
2018-05-27T16:59:28.927Z,4.50
2018-05-27T17:01:55.706Z,5.30
2018-05-27T17:04:22.101Z,5.20
2018-05-27T17:06:48.328Z,5.47
2018-05-27T17:09:14.530Z,4.37
2018-05-27T17:11:40.796Z,4.97
2018-05-27T17:14:07.079Z,4.27
2018-05-27T17:16:33.288Z,4.60
2018-05-27T17:19:00.280Z,4.47
2018-05-27T17:21:26.512Z,5.00
2018-05-27T17:23:52.756Z,5.27
2018-05-27T17:26:19.730Z,4.97
2018-05-27T17:28:45.967Z,4.80
2018-05-27T17:31:12.229Z,5.23
2018-05-27T17:33:38.463Z,5.23
2018-05-27T17:36:04.785Z,4.80
2018-05-27T17:38:30.973Z,4.60
2018-05-27T17:40:57.935Z,4.73
2018-05-27T17:43:24.894Z,4.90
2018-05-27T17:45:51.855Z,5.10
2018-05-27T17:48:18.836Z,4.40
2018-05-27T17:50:45.041Z,5.60
2018-05-27T17:53:11.314Z,5.67
2018-05-27T17:55:37.530Z,5.70
2018-05-27T17:58:04.543Z,5.17
2018-05-27T18:00:30.946Z,4.70
2018-05-27T18:02:57.174Z,5.50
2018-05-27T18:05:24.125Z,5.00
2018-05-27T18:07:51.113Z,5.07
2018-05-27T18:10:17.379Z,5.50
2018-05-27T18:12:43.819Z,5.60
2018-05-27T18:15:10.051Z,5.27
2018-05-27T18:17:36.285Z,5.60
2018-05-27T18:20:02.554Z,4.97
2018-05-27T18:22:28.785Z,5.10
2018-05-27T18:24:55.063Z,4.90
2018-05-27T18:27:21.287Z,4.83
2018-05-27T18:29:47.527Z,4.67
2018-05-27T18:32:13.767Z,4.80
2018-05-27T18:34:39.987Z,4.37
2018-05-27T18:37:06.255Z,5.50
2018-05-27T18:39:32.500Z,4.50
2018-05-27T18:41:58.742Z,5.30
2018-05-27T18:44:25.007Z,4.20
2018-05-27T18:46:51.984Z,3.97
2018-05-27T18:49:18.234Z,4.33
2018-05-27T18:51:44.465Z,5.40
2018-05-27T18:54:10.728Z,4.63
2018-05-27T18:56:36.984Z,4.40
2018-05-27T18:59:03.270Z,4.10
2018-05-27T19:01:30.298Z,4.90
2018-05-27T19:03:57.073Z,4.37
2018-05-27T19:06:24.040Z,4.00
2018-05-27T19:08:51.085Z,4.67
2018-05-27T19:11:18.094Z,4.60
2018-05-27T19:13:44.557Z,4.07
2018-05-27T19:16:10.804Z,4.60
2018-05-27T19:18:37.040Z,4.00
2018-05-27T19:21:03.354Z,4.43
2018-05-27T19:23:29.623Z,4.10
2018-05-27T19:25:55.928Z,4.40
2018-05-27T19:28:22.208Z,4.20
2018-05-27T19:30:48.966Z,4.63
2018-05-27T19:33:15.445Z,4.80
2018-05-27T19:35:42.451Z,4.23
2018-05-27T19:38:08.746Z,3.90
2018-05-27T19:40:35.010Z,4.23
2018-05-27T19:43:01.341Z,4.53
2018-05-27T19:45:27.690Z,4.07
2018-05-27T19:47:53.956Z,4.13
2018-05-27T19:50:20.331Z,4.50
2018-05-27T19:52:46.579Z,4.43
2018-05-27T19:55:12.838Z,4.80
2018-05-27T19:57:39.121Z,4.03
2018-05-27T20:00:05.422Z,4.77
2018-05-27T20:02:32.620Z,4.60
2018-05-27T20:04:58.872Z,4.50
2018-05-27T20:07:25.107Z,3.70
2018-05-27T20:09:51.409Z,4.30
2018-05-27T20:12:17.611Z,5.90
2018-05-27T20:14:43.923Z,4.23
2018-05-27T20:17:10.189Z,4.63
2018-05-27T20:19:36.410Z,5.00
2018-05-27T20:22:03.425Z,4.80
2018-05-27T20:24:30.411Z,3.83
2018-05-27T20:26:56.653Z,3.50
2018-05-27T20:29:22.885Z,3.93
2018-05-27T20:31:49.233Z,4.07
2018-05-27T20:34:15.479Z,3.80
2018-05-27T20:36:41.712Z,3.87
2018-05-27T20:39:07.976Z,4.47
2018-05-27T20:41:34.219Z,4.40
2018-05-27T20:44:00.474Z,4.30
2018-05-27T20:46:26.724Z,4.17
2018-05-27T20:48:52.960Z,4.13
2018-05-27T20:51:19.170Z,4.27
2018-05-27T20:53:45.452Z,4.40
2018-05-27T20:56:11.674Z,4.30
2018-05-27T20:58:37.884Z,4.07
2018-05-27T21:01:04.133Z,4.83
2018-05-27T21:03:30.382Z,3.73
2018-05-27T21:05:56.661Z,4.60
2018-05-27T21:08:22.902Z,4.43
2018-05-27T21:10:49.156Z,4.10
2018-05-27T21:13:16.156Z,5.07
2018-05-27T21:15:42.583Z,4.67
2018-05-27T21:18:09.678Z,4.60
2018-05-27T21:20:35.878Z,4.70
2018-05-27T21:23:02.102Z,3.70
2018-05-27T21:25:29.251Z,5.20
2018-05-27T21:27:55.486Z,4.63
2018-05-27T21:30:21.821Z,4.20
2018-05-27T21:32:48.042Z,5.00
2018-05-27T21:35:14.701Z,4.80
2018-05-27T21:37:40.935Z,4.50
2018-05-27T21:40:07.147Z,4.57
2018-05-27T21:42:33.399Z,4.90
2018-05-27T21:44:59.649Z,4.17
2018-05-27T21:47:25.849Z,4.27
2018-05-27T21:49:52.804Z,4.20
2018-05-27T21:52:19.005Z,4.40
2018-05-27T21:54:46.065Z,5.00
2018-05-27T21:57:12.329Z,4.07
2018-05-27T21:59:38.571Z,5.00
2018-05-27T22:02:05.561Z,5.37
2018-05-27T22:04:31.784Z,4.83
2018-05-27T22:06:58.019Z,5.87
2018-05-27T22:09:24.971Z,4.57
2018-05-27T22:11:51.192Z,4.80
2018-05-27T22:14:17.427Z,5.30
2018-05-27T22:16:44.021Z,5.23
2018-05-27T22:19:10.253Z,5.20
2018-05-27T22:21:37.187Z,4.77
2018-05-27T22:24:03.436Z,4.90
2018-05-27T22:26:30.431Z,4.70
2018-05-27T22:28:56.652Z,4.97
2018-05-27T22:31:22.979Z,5.00
2018-05-27T22:33:49.193Z,4.73
2018-05-27T22:36:15.965Z,5.60
2018-05-27T22:38:42.179Z,4.90
2018-05-27T22:41:08.389Z,4.27
2018-05-27T22:43:34.642Z,5.03
2018-05-27T22:46:00.859Z,5.17
2018-05-27T22:48:27.076Z,5.10
2018-05-27T22:50:54.052Z,5.20
2018-05-27T22:53:21.008Z,4.83
2018-05-27T22:55:47.984Z,4.87
2018-05-27T22:58:14.197Z,4.60
2018-05-27T23:00:41.397Z,4.97
2018-05-27T23:03:07.610Z,4.70
2018-05-27T23:05:33.800Z,4.93
2018-05-27T23:08:00.198Z,4.60
2018-05-27T23:10:26.431Z,5.00
2018-05-27T23:12:52.650Z,5.80
2018-05-27T23:15:18.867Z,4.50
2018-05-27T23:17:45.076Z,4.70
2018-05-27T23:20:11.348Z,4.93
2018-05-27T23:22:37.567Z,5.47
2018-05-27T23:25:03.772Z,4.43
2018-05-27T23:27:30.022Z,4.83
2018-05-27T23:29:56.293Z,4.60
2018-05-27T23:32:22.546Z,5.17
2018-05-27T23:34:48.811Z,4.77
2018-05-27T23:37:15.019Z,5.10
2018-05-27T23:39:41.268Z,4.13
2018-05-27T23:42:07.478Z,4.90
2018-05-27T23:44:33.705Z,4.60
2018-05-27T23:46:59.946Z,5.00
2018-05-27T23:49:26.147Z,4.00
2018-05-27T23:51:52.393Z,4.67
2018-05-27T23:54:18.633Z,4.60
2018-05-27T23:56:44.852Z,4.03
2018-05-27T23:59:11.099Z,4.17
